sensor_id;sensor_type;location;lat;lon;timestamp;P1;durP1;ratioP1;P2;durP2;ratioP2
70420;SDS011;57848;51.938;15.520;2024-03-06T00:02:09;32.25;;;15.27;;
70420;SDS011;57848;51.938;15.520;2024-03-06T00:04:35;33.90;;;14.97;;
70420;SDS011;57848;51.938;15.520;2024-03-06T00:07:01;28.80;;;13.70;;
70420;SDS011;57848;51.938;15.520;2024-03-06T00:09:26;31.17;;;15.10;;
70420;SDS011;57848;51.938;15.520;2024-03-06T00:11:52;31.70;;;14.23;;
70420;SDS011;57848;51.938;15.520;2024-03-06T00:14:19;32.17;;;15.48;;
70420;SDS011;57848;51.938;15.520;2024-03-06T00:16:46;34.97;;;15.27;;
70420;SDS011;57848;51.938;15.520;2024-03-06T00:19:12;31.25;;;15.00;;
70420;SDS011;57848;51.938;15.520;2024-03-06T00:21:38;31.92;;;15.30;;
70420;SDS011;57848;51.938;15.520;2024-03-06T00:24:04;32.17;;;15.77;;
70420;SDS011;57848;51.938;15.520;2024-03-06T00:26:30;34.78;;;14.95;;
70420;SDS011;57848;51.938;15.520;2024-03-06T00:28:55;35.80;;;16.77;;
70420;SDS011;57848;51.938;15.520;2024-03-06T00:31:20;36.13;;;16.13;;
70420;SDS011;57848;51.938;15.520;2024-03-06T00:33:46;33.15;;;16.52;;
70420;SDS011;57848;51.938;15.520;2024-03-06T00:36:11;33.83;;;16.20;;
70420;SDS011;57848;51.938;15.520;2024-03-06T00:38:37;38.60;;;18.03;;
70420;SDS011;57848;51.938;15.520;2024-03-06T00:41:02;36.17;;;16.47;;
70420;SDS011;57848;51.938;15.520;2024-03-06T00:43:28;36.13;;;16.73;;
70420;SDS011;57848;51.938;15.520;2024-03-06T00:45:54;40.07;;;17.73;;
70420;SDS011;57848;51.938;15.520;2024-03-06T00:48:19;35.47;;;16.98;;
70420;SDS011;57848;51.938;15.520;2024-03-06T00:50:45;37.50;;;18.63;;
70420;SDS011;57848;51.938;15.520;2024-03-06T00:53:10;37.97;;;18.17;;
70420;SDS011;57848;51.938;15.520;2024-03-06T00:55:36;39.07;;;17.73;;
70420;SDS011;57848;51.938;15.520;2024-03-06T00:58:02;36.63;;;17.45;;
70420;SDS011;57848;51.938;15.520;2024-03-06T01:00:27;38.07;;;17.07;;
70420;SDS011;57848;51.938;15.520;2024-03-06T01:02:53;42.28;;;19.98;;
70420;SDS011;57848;51.938;15.520;2024-03-06T01:05:18;37.57;;;18.10;;
70420;SDS011;57848;51.938;15.520;2024-03-06T01:07:43;35.70;;;17.43;;
70420;SDS011;57848;51.938;15.520;2024-03-06T01:10:09;33.93;;;17.07;;
70420;SDS011;57848;51.938;15.520;2024-03-06T01:12:35;36.13;;;17.23;;
70420;SDS011;57848;51.938;15.520;2024-03-06T01:15:01;38.30;;;17.58;;
70420;SDS011;57848;51.938;15.520;2024-03-06T01:17:26;39.07;;;17.10;;
70420;SDS011;57848;51.938;15.520;2024-03-06T01:19:52;37.17;;;17.07;;
70420;SDS011;57848;51.938;15.520;2024-03-06T01:22:17;38.73;;;17.60;;
70420;SDS011;57848;51.938;15.520;2024-03-06T01:24:43;36.55;;;17.80;;
70420;SDS011;57848;51.938;15.520;2024-03-06T01:27:09;38.27;;;17.33;;
70420;SDS011;57848;51.938;15.520;2024-03-06T01:29:34;38.97;;;18.42;;
70420;SDS011;57848;51.938;15.520;2024-03-06T01:32:00;43.47;;;19.40;;
70420;SDS011;57848;51.938;15.520;2024-03-06T01:34:26;39.50;;;18.83;;
70420;SDS011;57848;51.938;15.520;2024-03-06T01:36:52;40.50;;;18.53;;
70420;SDS011;57848;51.938;15.520;2024-03-06T01:39:17;49.88;;;20.48;;
70420;SDS011;57848;51.938;15.520;2024-03-06T01:41:47;40.60;;;19.65;;
70420;SDS011;57848;51.938;15.520;2024-03-06T01:44:16;40.13;;;17.40;;
70420;SDS011;57848;51.938;15.520;2024-03-06T01:46:46;44.78;;;18.83;;
70420;SDS011;57848;51.938;15.520;2024-03-06T01:49:15;46.72;;;19.52;;
70420;SDS011;57848;51.938;15.520;2024-03-06T01:51:42;44.85;;;19.80;;
70420;SDS011;57848;51.938;15.520;2024-03-06T01:54:13;47.72;;;20.83;;
70420;SDS011;57848;51.938;15.520;2024-03-06T01:56:39;49.97;;;22.10;;
70420;SDS011;57848;51.938;15.520;2024-03-06T01:59:10;43.45;;;22.42;;
70420;SDS011;57848;51.938;15.520;2024-03-06T02:01:37;52.55;;;25.85;;
70420;SDS011;57848;51.938;15.520;2024-03-06T02:04:03;49.10;;;23.63;;
70420;SDS011;57848;51.938;15.520;2024-03-06T02:06:30;50.45;;;23.13;;
70420;SDS011;57848;51.938;15.520;2024-03-06T02:08:55;52.58;;;23.92;;
70420;SDS011;57848;51.938;15.520;2024-03-06T02:11:21;45.67;;;21.63;;
70420;SDS011;57848;51.938;15.520;2024-03-06T02:13:46;50.87;;;20.73;;
70420;SDS011;57848;51.938;15.520;2024-03-06T02:16:14;49.35;;;20.48;;
70420;SDS011;57848;51.938;15.520;2024-03-06T02:18:50;49.10;;;20.98;;
70420;SDS011;57848;51.938;15.520;2024-03-06T02:21:22;49.63;;;21.00;;
70420;SDS011;57848;51.938;15.520;2024-03-06T02:23:48;44.50;;;19.77;;
70420;SDS011;57848;51.938;15.520;2024-03-06T02:26:16;48.53;;;19.75;;
70420;SDS011;57848;51.938;15.520;2024-03-06T02:28:48;44.38;;;19.23;;
70420;SDS011;57848;51.938;15.520;2024-03-06T02:31:17;44.28;;;19.63;;
70420;SDS011;57848;51.938;15.520;2024-03-06T02:33:45;46.50;;;23.33;;
70420;SDS011;57848;51.938;15.520;2024-03-06T02:36:17;49.23;;;21.30;;
70420;SDS011;57848;51.938;15.520;2024-03-06T02:38:44;43.72;;;19.95;;
70420;SDS011;57848;51.938;15.520;2024-03-06T02:41:10;47.78;;;20.25;;
70420;SDS011;57848;51.938;15.520;2024-03-06T02:43:36;47.00;;;20.13;;
70420;SDS011;57848;51.938;15.520;2024-03-06T02:46:02;41.97;;;19.85;;
70420;SDS011;57848;51.938;15.520;2024-03-06T02:48:28;44.97;;;18.93;;
70420;SDS011;57848;51.938;15.520;2024-03-06T02:50:54;40.30;;;17.95;;
70420;SDS011;57848;51.938;15.520;2024-03-06T02:53:20;43.03;;;18.65;;
70420;SDS011;57848;51.938;15.520;2024-03-06T02:55:46;42.10;;;17.23;;
70420;SDS011;57848;51.938;15.520;2024-03-06T02:58:12;40.83;;;18.35;;
70420;SDS011;57848;51.938;15.520;2024-03-06T03:00:39;40.97;;;18.43;;
70420;SDS011;57848;51.938;15.520;2024-03-06T03:03:06;42.20;;;20.55;;
70420;SDS011;57848;51.938;15.520;2024-03-06T03:05:31;38.50;;;19.67;;
70420;SDS011;57848;51.938;15.520;2024-03-06T03:07:58;39.70;;;20.02;;
70420;SDS011;57848;51.938;15.520;2024-03-06T03:10:24;40.43;;;19.07;;
70420;SDS011;57848;51.938;15.520;2024-03-06T03:12:49;40.60;;;19.45;;
70420;SDS011;57848;51.938;15.520;2024-03-06T03:15:15;40.13;;;19.07;;
70420;SDS011;57848;51.938;15.520;2024-03-06T03:17:41;42.05;;;19.08;;
70420;SDS011;57848;51.938;15.520;2024-03-06T03:20:06;40.63;;;18.47;;
70420;SDS011;57848;51.938;15.520;2024-03-06T03:22:41;38.30;;;18.38;;
70420;SDS011;57848;51.938;15.520;2024-03-06T03:25:07;39.67;;;18.70;;
70420;SDS011;57848;51.938;15.520;2024-03-06T03:27:33;45.33;;;18.73;;
70420;SDS011;57848;51.938;15.520;2024-03-06T03:29:59;41.22;;;19.25;;
70420;SDS011;57848;51.938;15.520;2024-03-06T03:32:24;46.10;;;18.90;;
70420;SDS011;57848;51.938;15.520;2024-03-06T03:34:50;40.13;;;19.80;;
70420;SDS011;57848;51.938;15.520;2024-03-06T03:37:15;47.77;;;20.40;;
70420;SDS011;57848;51.938;15.520;2024-03-06T03:39:43;41.97;;;19.33;;
70420;SDS011;57848;51.938;15.520;2024-03-06T03:42:09;39.63;;;18.13;;
70420;SDS011;57848;51.938;15.520;2024-03-06T03:44:34;44.37;;;19.07;;
70420;SDS011;57848;51.938;15.520;2024-03-06T03:46:59;38.33;;;17.80;;
70420;SDS011;57848;51.938;15.520;2024-03-06T03:49:25;40.67;;;19.57;;
70420;SDS011;57848;51.938;15.520;2024-03-06T03:51:51;43.47;;;19.83;;
70420;SDS011;57848;51.938;15.520;2024-03-06T03:54:16;40.53;;;20.83;;
70420;SDS011;57848;51.938;15.520;2024-03-06T03:56:42;45.47;;;21.80;;
70420;SDS011;57848;51.938;15.520;2024-03-06T03:59:07;42.33;;;20.20;;
70420;SDS011;57848;51.938;15.520;2024-03-06T04:01:33;41.40;;;19.93;;
70420;SDS011;57848;51.938;15.520;2024-03-06T04:03:58;38.07;;;19.07;;
70420;SDS011;57848;51.938;15.520;2024-03-06T04:06:23;40.50;;;18.40;;
70420;SDS011;57848;51.938;15.520;2024-03-06T04:08:49;40.57;;;19.67;;
70420;SDS011;57848;51.938;15.520;2024-03-06T04:11:14;35.23;;;15.83;;
70420;SDS011;57848;51.938;15.520;2024-03-06T04:13:39;36.13;;;15.90;;
70420;SDS011;57848;51.938;15.520;2024-03-06T04:16:05;50.83;;;16.50;;
70420;SDS011;57848;51.938;15.520;2024-03-06T04:18:31;39.90;;;15.53;;
70420;SDS011;57848;51.938;15.520;2024-03-06T04:21:03;46.47;;;17.17;;
70420;SDS011;57848;51.938;15.520;2024-03-06T04:23:29;59.72;;;15.65;;
70420;SDS011;57848;51.938;15.520;2024-03-06T04:25:55;64.20;;;15.27;;
70420;SDS011;57848;51.938;15.520;2024-03-06T04:28:20;60.15;;;17.60;;
70420;SDS011;57848;51.938;15.520;2024-03-06T04:30:46;52.07;;;16.80;;
70420;SDS011;57848;51.938;15.520;2024-03-06T04:33:12;72.70;;;18.40;;
70420;SDS011;57848;51.938;15.520;2024-03-06T04:35:40;47.47;;;17.83;;
70420;SDS011;57848;51.938;15.520;2024-03-06T04:38:06;50.28;;;17.95;;
70420;SDS011;57848;51.938;15.520;2024-03-06T04:40:31;56.43;;;18.63;;
70420;SDS011;57848;51.938;15.520;2024-03-06T04:42:57;44.23;;;17.83;;
70420;SDS011;57848;51.938;15.520;2024-03-06T04:45:22;52.77;;;17.50;;
70420;SDS011;57848;51.938;15.520;2024-03-06T04:47:48;61.95;;;18.75;;
70420;SDS011;57848;51.938;15.520;2024-03-06T04:50:13;71.43;;;20.07;;
70420;SDS011;57848;51.938;15.520;2024-03-06T04:52:42;72.15;;;20.60;;
70420;SDS011;57848;51.938;15.520;2024-03-06T04:55:09;66.80;;;19.40;;
70420;SDS011;57848;51.938;15.520;2024-03-06T04:57:36;57.78;;;20.88;;
70420;SDS011;57848;51.938;15.520;2024-03-06T05:00:02;56.35;;;21.92;;
70420;SDS011;57848;51.938;15.520;2024-03-06T05:02:31;59.63;;;21.13;;
70420;SDS011;57848;51.938;15.520;2024-03-06T05:05:01;86.63;;;21.35;;
70420;SDS011;57848;51.938;15.520;2024-03-06T05:07:28;67.03;;;22.23;;
70420;SDS011;57848;51.938;15.520;2024-03-06T05:09:55;78.18;;;21.65;;
70420;SDS011;57848;51.938;15.520;2024-03-06T05:12:22;77.70;;;21.17;;
70420;SDS011;57848;51.938;15.520;2024-03-06T05:14:50;58.70;;;19.63;;
70420;SDS011;57848;51.938;15.520;2024-03-06T05:17:17;65.70;;;19.50;;
70420;SDS011;57848;51.938;15.520;2024-03-06T05:19:42;75.32;;;21.67;;
70420;SDS011;57848;51.938;15.520;2024-03-06T05:22:09;74.65;;;21.17;;
70420;SDS011;57848;51.938;15.520;2024-03-06T05:24:36;78.57;;;21.63;;
70420;SDS011;57848;51.938;15.520;2024-03-06T05:27:02;79.25;;;19.73;;
70420;SDS011;57848;51.938;15.520;2024-03-06T05:29:27;66.17;;;20.73;;
70420;SDS011;57848;51.938;15.520;2024-03-06T05:31:53;75.88;;;20.00;;
70420;SDS011;57848;51.938;15.520;2024-03-06T05:34:18;75.73;;;19.20;;
70420;SDS011;57848;51.938;15.520;2024-03-06T05:36:43;47.40;;;18.40;;
70420;SDS011;57848;51.938;15.520;2024-03-06T05:39:09;61.47;;;19.70;;
70420;SDS011;57848;51.938;15.520;2024-03-06T05:41:38;62.25;;;19.05;;
70420;SDS011;57848;51.938;15.520;2024-03-06T05:44:05;57.70;;;18.95;;
70420;SDS011;57848;51.938;15.520;2024-03-06T05:46:30;51.00;;;17.90;;
70420;SDS011;57848;51.938;15.520;2024-03-06T05:48:56;75.40;;;19.03;;
70420;SDS011;57848;51.938;15.520;2024-03-06T05:51:21;51.60;;;18.73;;
70420;SDS011;57848;51.938;15.520;2024-03-06T05:53:47;50.10;;;18.73;;
70420;SDS011;57848;51.938;15.520;2024-03-06T05:56:12;60.60;;;19.43;;
70420;SDS011;57848;51.938;15.520;2024-03-06T05:58:38;42.93;;;18.87;;
70420;SDS011;57848;51.938;15.520;2024-03-06T06:01:03;41.22;;;20.10;;
70420;SDS011;57848;51.938;15.520;2024-03-06T06:03:29;47.30;;;19.23;;
70420;SDS011;57848;51.938;15.520;2024-03-06T06:05:55;63.55;;;19.42;;
70420;SDS011;57848;51.938;15.520;2024-03-06T06:08:21;52.95;;;17.83;;
70420;SDS011;57848;51.938;15.520;2024-03-06T06:10:47;57.63;;;18.60;;
70420;SDS011;57848;51.938;15.520;2024-03-06T06:13:12;55.33;;;18.40;;
70420;SDS011;57848;51.938;15.520;2024-03-06T06:15:38;53.23;;;18.73;;
70420;SDS011;57848;51.938;15.520;2024-03-06T06:18:03;47.47;;;17.63;;
70420;SDS011;57848;51.938;15.520;2024-03-06T06:20:29;59.40;;;18.67;;
70420;SDS011;57848;51.938;15.520;2024-03-06T06:22:55;43.00;;;17.80;;
70420;SDS011;57848;51.938;15.520;2024-03-06T06:25:21;44.92;;;18.52;;
70420;SDS011;57848;51.938;15.520;2024-03-06T06:27:47;44.97;;;19.38;;
70420;SDS011;57848;51.938;15.520;2024-03-06T06:30:14;45.67;;;18.70;;
70420;SDS011;57848;51.938;15.520;2024-03-06T06:32:41;47.20;;;19.80;;
70420;SDS011;57848;51.938;15.520;2024-03-06T06:35:06;44.80;;;17.48;;
70420;SDS011;57848;51.938;15.520;2024-03-06T06:37:33;46.67;;;18.30;;
70420;SDS011;57848;51.938;15.520;2024-03-06T06:39:59;48.23;;;18.33;;
70420;SDS011;57848;51.938;15.520;2024-03-06T06:42:24;42.55;;;16.50;;
70420;SDS011;57848;51.938;15.520;2024-03-06T06:44:50;42.83;;;17.52;;
70420;SDS011;57848;51.938;15.520;2024-03-06T06:47:16;41.23;;;17.37;;
70420;SDS011;57848;51.938;15.520;2024-03-06T06:49:42;48.55;;;18.52;;
70420;SDS011;57848;51.938;15.520;2024-03-06T06:52:07;45.40;;;18.37;;
70420;SDS011;57848;51.938;15.520;2024-03-06T06:54:33;53.73;;;16.90;;
70420;SDS011;57848;51.938;15.520;2024-03-06T06:56:58;56.23;;;17.57;;
70420;SDS011;57848;51.938;15.520;2024-03-06T06:59:24;53.40;;;19.63;;
70420;SDS011;57848;51.938;15.520;2024-03-06T07:01:49;58.13;;;20.70;;
70420;SDS011;57848;51.938;15.520;2024-03-06T07:04:14;57.23;;;19.77;;
70420;SDS011;57848;51.938;15.520;2024-03-06T07:06:44;63.03;;;18.90;;
70420;SDS011;57848;51.938;15.520;2024-03-06T07:09:11;57.40;;;20.33;;
70420;SDS011;57848;51.938;15.520;2024-03-06T07:11:37;53.90;;;19.97;;
70420;SDS011;57848;51.938;15.520;2024-03-06T07:14:02;66.17;;;20.47;;
70420;SDS011;57848;51.938;15.520;2024-03-06T07:16:28;77.00;;;22.90;;
70420;SDS011;57848;51.938;15.520;2024-03-06T07:18:53;55.23;;;20.03;;
70420;SDS011;57848;51.938;15.520;2024-03-06T07:21:18;68.37;;;19.77;;
70420;SDS011;57848;51.938;15.520;2024-03-06T07:23:44;68.37;;;21.50;;
70420;SDS011;57848;51.938;15.520;2024-03-06T07:26:09;50.23;;;19.93;;
70420;SDS011;57848;51.938;15.520;2024-03-06T07:28:35;53.87;;;21.67;;
70420;SDS011;57848;51.938;15.520;2024-03-06T07:31:01;53.17;;;22.77;;
70420;SDS011;57848;51.938;15.520;2024-03-06T07:33:27;63.60;;;25.02;;
70420;SDS011;57848;51.938;15.520;2024-03-06T07:35:53;63.83;;;22.67;;
70420;SDS011;57848;51.938;15.520;2024-03-06T07:38:18;59.50;;;23.40;;
70420;SDS011;57848;51.938;15.520;2024-03-06T07:40:44;67.35;;;23.58;;
70420;SDS011;57848;51.938;15.520;2024-03-06T07:43:10;73.77;;;26.03;;
70420;SDS011;57848;51.938;15.520;2024-03-06T07:45:36;55.10;;;21.55;;
70420;SDS011;57848;51.938;15.520;2024-03-06T07:48:01;60.47;;;22.67;;
70420;SDS011;57848;51.938;15.520;2024-03-06T07:50:27;68.43;;;22.98;;
70420;SDS011;57848;51.938;15.520;2024-03-06T07:52:52;60.13;;;24.03;;
70420;SDS011;57848;51.938;15.520;2024-03-06T07:55:19;54.08;;;24.08;;
70420;SDS011;57848;51.938;15.520;2024-03-06T07:57:46;55.23;;;21.80;;
70420;SDS011;57848;51.938;15.520;2024-03-06T08:00:12;46.30;;;20.10;;
70420;SDS011;57848;51.938;15.520;2024-03-06T08:02:44;45.60;;;18.95;;
70420;SDS011;57848;51.938;15.520;2024-03-06T08:05:15;40.88;;;18.45;;
70420;SDS011;57848;51.938;15.520;2024-03-06T08:07:41;41.37;;;17.43;;
70420;SDS011;57848;51.938;15.520;2024-03-06T08:10:09;42.97;;;18.60;;
70420;SDS011;57848;51.938;15.520;2024-03-06T08:12:41;43.55;;;19.58;;
70420;SDS011;57848;51.938;15.520;2024-03-06T08:15:08;52.47;;;22.92;;
70420;SDS011;57848;51.938;15.520;2024-03-06T08:17:35;54.88;;;21.60;;
70420;SDS011;57848;51.938;15.520;2024-03-06T08:20:04;58.13;;;22.70;;
70420;SDS011;57848;51.938;15.520;2024-03-06T08:22:39;59.33;;;26.17;;
70420;SDS011;57848;51.938;15.520;2024-03-06T08:25:09;56.47;;;24.10;;
70420;SDS011;57848;51.938;15.520;2024-03-06T08:27:36;66.93;;;25.33;;
70420;SDS011;57848;51.938;15.520;2024-03-06T08:30:06;55.60;;;22.30;;
70420;SDS011;57848;51.938;15.520;2024-03-06T08:32:33;50.30;;;22.10;;
70420;SDS011;57848;51.938;15.520;2024-03-06T08:35:08;48.22;;;20.25;;
70420;SDS011;57848;51.938;15.520;2024-03-06T08:37:38;42.00;;;18.92;;
70420;SDS011;57848;51.938;15.520;2024-03-06T08:40:04;46.88;;;19.75;;
70420;SDS011;57848;51.938;15.520;2024-03-06T08:42:30;43.13;;;20.10;;
70420;SDS011;57848;51.938;15.520;2024-03-06T08:44:57;52.97;;;23.42;;
70420;SDS011;57848;51.938;15.520;2024-03-06T08:47:23;47.47;;;22.50;;
70420;SDS011;57848;51.938;15.520;2024-03-06T08:49:48;42.85;;;21.15;;
70420;SDS011;57848;51.938;15.520;2024-03-06T08:52:13;44.50;;;20.93;;
70420;SDS011;57848;51.938;15.520;2024-03-06T08:54:42;41.97;;;19.47;;
70420;SDS011;57848;51.938;15.520;2024-03-06T08:57:08;40.05;;;18.90;;
70420;SDS011;57848;51.938;15.520;2024-03-06T08:59:36;42.63;;;20.17;;
70420;SDS011;57848;51.938;15.520;2024-03-06T09:02:15;39.03;;;19.73;;
70420;SDS011;57848;51.938;15.520;2024-03-06T09:04:43;39.95;;;18.15;;
70420;SDS011;57848;51.938;15.520;2024-03-06T09:07:09;41.10;;;18.95;;
70420;SDS011;57848;51.938;15.520;2024-03-06T09:09:36;47.80;;;18.27;;
70420;SDS011;57848;51.938;15.520;2024-03-06T09:12:02;36.47;;;18.05;;
70420;SDS011;57848;51.938;15.520;2024-03-06T09:14:30;37.47;;;16.80;;
70420;SDS011;57848;51.938;15.520;2024-03-06T09:16:59;40.30;;;17.42;;
70420;SDS011;57848;51.938;15.520;2024-03-06T09:19:25;31.52;;;14.90;;
70420;SDS011;57848;51.938;15.520;2024-03-06T09:21:51;30.63;;;14.80;;
70420;SDS011;57848;51.938;15.520;2024-03-06T09:24:16;32.63;;;15.60;;
70420;SDS011;57848;51.938;15.520;2024-03-06T09:26:42;31.90;;;16.03;;
70420;SDS011;57848;51.938;15.520;2024-03-06T09:29:08;36.03;;;16.73;;
70420;SDS011;57848;51.938;15.520;2024-03-06T09:31:35;36.30;;;16.30;;
70420;SDS011;57848;51.938;15.520;2024-03-06T09:34:00;34.30;;;16.50;;
70420;SDS011;57848;51.938;15.520;2024-03-06T09:36:26;34.40;;;16.30;;
70420;SDS011;57848;51.938;15.520;2024-03-06T09:38:51;36.83;;;15.90;;
70420;SDS011;57848;51.938;15.520;2024-03-06T09:41:17;34.88;;;15.73;;
70420;SDS011;57848;51.938;15.520;2024-03-06T09:43:43;35.43;;;15.27;;
70420;SDS011;57848;51.938;15.520;2024-03-06T09:46:12;32.25;;;15.48;;
70420;SDS011;57848;51.938;15.520;2024-03-06T09:48:38;36.17;;;15.60;;
70420;SDS011;57848;51.938;15.520;2024-03-06T09:51:10;37.08;;;16.45;;
70420;SDS011;57848;51.938;15.520;2024-03-06T09:53:37;36.38;;;15.52;;
70420;SDS011;57848;51.938;15.520;2024-03-06T09:56:04;27.95;;;13.00;;
70420;SDS011;57848;51.938;15.520;2024-03-06T09:58:30;25.77;;;13.10;;
70420;SDS011;57848;51.938;15.520;2024-03-06T10:00:57;25.20;;;11.80;;
70420;SDS011;57848;51.938;15.520;2024-03-06T10:03:25;22.92;;;11.98;;
70420;SDS011;57848;51.938;15.520;2024-03-06T10:05:50;24.47;;;11.07;;
70420;SDS011;57848;51.938;15.520;2024-03-06T10:08:16;23.80;;;12.27;;
70420;SDS011;57848;51.938;15.520;2024-03-06T10:10:41;22.13;;;11.50;;
70420;SDS011;57848;51.938;15.520;2024-03-06T10:13:08;25.02;;;11.98;;
70420;SDS011;57848;51.938;15.520;2024-03-06T10:15:33;23.37;;;12.13;;
70420;SDS011;57848;51.938;15.520;2024-03-06T10:18:11;21.88;;;10.88;;
70420;SDS011;57848;51.938;15.520;2024-03-06T10:20:40;21.58;;;11.35;;
70420;SDS011;57848;51.938;15.520;2024-03-06T10:23:08;23.17;;;10.67;;
70420;SDS011;57848;51.938;15.520;2024-03-06T10:25:34;20.25;;;10.63;;
70420;SDS011;57848;51.938;15.520;2024-03-06T10:28:10;22.85;;;11.02;;
70420;SDS011;57848;51.938;15.520;2024-03-06T10:30:40;20.67;;;11.03;;
70420;SDS011;57848;51.938;15.520;2024-03-06T10:33:13;20.73;;;10.10;;
70420;SDS011;57848;51.938;15.520;2024-03-06T10:35:43;21.98;;;10.93;;
70420;SDS011;57848;51.938;15.520;2024-03-06T10:38:11;21.65;;;10.52;;
70420;SDS011;57848;51.938;15.520;2024-03-06T10:40:37;25.45;;;11.02;;
70420;SDS011;57848;51.938;15.520;2024-03-06T10:43:04;23.77;;;11.47;;
70420;SDS011;57848;51.938;15.520;2024-03-06T10:48:24;27.83;;;12.43;;
70420;SDS011;57848;51.938;15.520;2024-03-06T10:50:53;25.33;;;11.45;;
70420;SDS011;57848;51.938;15.520;2024-03-06T10:53:20;22.63;;;11.30;;
70420;SDS011;57848;51.938;15.520;2024-03-06T10:55:46;22.07;;;11.73;;
70420;SDS011;57848;51.938;15.520;2024-03-06T10:58:13;23.65;;;10.98;;
70420;SDS011;57848;51.938;15.520;2024-03-06T11:00:39;23.73;;;12.10;;
70420;SDS011;57848;51.938;15.520;2024-03-06T11:03:06;24.10;;;11.52;;
70420;SDS011;57848;51.938;15.520;2024-03-06T11:05:42;27.15;;;12.77;;
70420;SDS011;57848;51.938;15.520;2024-03-06T11:08:09;22.92;;;11.07;;
70420;SDS011;57848;51.938;15.520;2024-03-06T11:10:37;22.83;;;11.20;;
70420;SDS011;57848;51.938;15.520;2024-03-06T11:13:22;19.60;;;9.90;;
70420;SDS011;57848;51.938;15.520;2024-03-06T11:15:51;21.35;;;10.95;;
70420;SDS011;57848;51.938;15.520;2024-03-06T11:21:27;24.58;;;11.57;;
70420;SDS011;57848;51.938;15.520;2024-03-06T11:26:57;25.60;;;11.47;;
70420;SDS011;57848;51.938;15.520;2024-03-06T11:29:29;22.40;;;11.05;;
70420;SDS011;57848;51.938;15.520;2024-03-06T11:32:14;22.05;;;11.18;;
70420;SDS011;57848;51.938;15.520;2024-03-06T11:34:42;21.92;;;10.40;;
70420;SDS011;57848;51.938;15.520;2024-03-06T11:37:08;22.63;;;11.53;;
70420;SDS011;57848;51.938;15.520;2024-03-06T11:39:37;20.95;;;11.00;;
70420;SDS011;57848;51.938;15.520;2024-03-06T11:42:04;22.77;;;11.90;;
70420;SDS011;57848;51.938;15.520;2024-03-06T11:44:33;22.85;;;12.23;;
70420;SDS011;57848;51.938;15.520;2024-03-06T11:49:26;22.17;;;12.57;;
70420;SDS011;57848;51.938;15.520;2024-03-06T11:52:06;19.38;;;10.05;;
70420;SDS011;57848;51.938;15.520;2024-03-06T11:54:36;25.20;;;11.35;;
70420;SDS011;57848;51.938;15.520;2024-03-06T11:57:03;21.27;;;10.85;;
70420;SDS011;57848;51.938;15.520;2024-03-06T11:59:30;22.40;;;11.63;;
70420;SDS011;57848;51.938;15.520;2024-03-06T12:02:03;22.15;;;11.13;;
70420;SDS011;57848;51.938;15.520;2024-03-06T12:04:30;23.08;;;12.20;;
70420;SDS011;57848;51.938;15.520;2024-03-06T12:06:57;21.35;;;11.73;;
70420;SDS011;57848;51.938;15.520;2024-03-06T12:09:24;20.83;;;11.10;;
70420;SDS011;57848;51.938;15.520;2024-03-06T12:11:50;23.33;;;11.60;;
70420;SDS011;57848;51.938;15.520;2024-03-06T12:14:17;18.47;;;10.17;;
70420;SDS011;57848;51.938;15.520;2024-03-06T12:17:01;19.30;;;10.98;;
70420;SDS011;57848;51.938;15.520;2024-03-06T12:19:33;18.70;;;10.23;;
70420;SDS011;57848;51.938;15.520;2024-03-06T12:21:59;21.05;;;11.15;;
70420;SDS011;57848;51.938;15.520;2024-03-06T12:24:26;22.38;;;11.57;;
70420;SDS011;57848;51.938;15.520;2024-03-06T12:26:59;21.27;;;11.70;;
70420;SDS011;57848;51.938;15.520;2024-03-06T12:29:27;23.20;;;12.00;;
70420;SDS011;57848;51.938;15.520;2024-03-06T12:31:53;20.00;;;10.75;;
70420;SDS011;57848;51.938;15.520;2024-03-06T12:34:18;21.33;;;11.00;;
70420;SDS011;57848;51.938;15.520;2024-03-06T12:36:44;21.00;;;11.23;;
70420;SDS011;57848;51.938;15.520;2024-03-06T12:39:10;21.15;;;10.90;;
70420;SDS011;57848;51.938;15.520;2024-03-06T12:41:43;19.95;;;10.48;;
70420;SDS011;57848;51.938;15.520;2024-03-06T12:44:08;20.10;;;11.03;;
70420;SDS011;57848;51.938;15.520;2024-03-06T12:46:33;20.37;;;10.57;;
70420;SDS011;57848;51.938;15.520;2024-03-06T12:48:59;20.88;;;11.73;;
70420;SDS011;57848;51.938;15.520;2024-03-06T12:51:25;22.37;;;11.40;;
70420;SDS011;57848;51.938;15.520;2024-03-06T12:53:50;23.77;;;12.43;;
70420;SDS011;57848;51.938;15.520;2024-03-06T12:56:16;22.63;;;10.87;;
70420;SDS011;57848;51.938;15.520;2024-03-06T12:58:42;21.08;;;11.07;;
70420;SDS011;57848;51.938;15.520;2024-03-06T13:01:08;23.60;;;11.70;;
70420;SDS011;57848;51.938;15.520;2024-03-06T13:03:33;20.35;;;10.88;;
70420;SDS011;57848;51.938;15.520;2024-03-06T13:05:59;22.67;;;11.03;;
70420;SDS011;57848;51.938;15.520;2024-03-06T13:08:24;22.13;;;11.43;;
70420;SDS011;57848;51.938;15.520;2024-03-06T13:10:50;22.35;;;10.05;;
70420;SDS011;57848;51.938;15.520;2024-03-06T13:13:15;21.13;;;10.90;;
70420;SDS011;57848;51.938;15.520;2024-03-06T13:15:40;20.53;;;10.43;;
70420;SDS011;57848;51.938;15.520;2024-03-06T13:18:06;20.63;;;10.80;;
70420;SDS011;57848;51.938;15.520;2024-03-06T13:20:32;19.83;;;10.27;;
70420;SDS011;57848;51.938;15.520;2024-03-06T13:22:58;21.23;;;10.43;;
70420;SDS011;57848;51.938;15.520;2024-03-06T13:25:24;20.30;;;10.57;;
70420;SDS011;57848;51.938;15.520;2024-03-06T13:27:50;22.00;;;10.93;;
70420;SDS011;57848;51.938;15.520;2024-03-06T13:30:17;22.95;;;10.30;;
70420;SDS011;57848;51.938;15.520;2024-03-06T13:32:43;19.65;;;10.88;;
70420;SDS011;57848;51.938;15.520;2024-03-06T13:35:10;21.75;;;10.00;;
70420;SDS011;57848;51.938;15.520;2024-03-06T13:37:38;19.10;;;9.27;;
70420;SDS011;57848;51.938;15.520;2024-03-06T13:40:03;25.25;;;11.18;;
70420;SDS011;57848;51.938;15.520;2024-03-06T13:42:32;24.33;;;11.20;;
70420;SDS011;57848;51.938;15.520;2024-03-06T13:44:58;24.65;;;10.88;;
70420;SDS011;57848;51.938;15.520;2024-03-06T13:47:23;21.40;;;10.93;;
70420;SDS011;57848;51.938;15.520;2024-03-06T13:49:48;24.33;;;11.60;;
70420;SDS011;57848;51.938;15.520;2024-03-06T13:52:14;21.25;;;11.07;;
70420;SDS011;57848;51.938;15.520;2024-03-06T13:54:40;22.97;;;11.13;;
70420;SDS011;57848;51.938;15.520;2024-03-06T13:57:07;26.70;;;12.82;;
70420;SDS011;57848;51.938;15.520;2024-03-06T13:59:33;23.42;;;11.95;;
70420;SDS011;57848;51.938;15.520;2024-03-06T14:01:59;24.50;;;11.20;;
70420;SDS011;57848;51.938;15.520;2024-03-06T14:04:25;21.33;;;10.17;;
70420;SDS011;57848;51.938;15.520;2024-03-06T14:06:51;21.55;;;11.25;;
70420;SDS011;57848;51.938;15.520;2024-03-06T14:09:16;24.60;;;12.07;;
70420;SDS011;57848;51.938;15.520;2024-03-06T14:11:42;25.43;;;11.97;;
70420;SDS011;57848;51.938;15.520;2024-03-06T14:14:07;26.90;;;11.60;;
70420;SDS011;57848;51.938;15.520;2024-03-06T14:16:34;26.80;;;13.43;;
70420;SDS011;57848;51.938;15.520;2024-03-06T14:18:59;27.13;;;12.93;;